Portada
METAR-TAF:

METAR-TAF

Aeropuertos :

Jacksonville Municipal Airport

Jacksonville, Illinois, Estados Unidos

latitud: 39-46-27N, longitud: 090-14-19W, altitud: 190 m

Observación

El informe se hizo hace 29 minutos, a las 08:55 UTC
Viento 9 kt del noroeste
Temperatura 1°C
Humedad 93%
Presión 1020 hPa
Visibilidad: 16.1 km
Cielo cubierto a una altura de 900 ft

METAR: KIJX 040855Z AUTO 31009KT 10SM OVC009 01/00 A3013 RMK AO2 T00100000

Hora: 04:24 (09:24 UTC)


TAF: falta

Observaciones y pronósticos meteorológicos de más de 4000 aeropuertos (mensajes METAR y TAF).

Los puntos amarillos y rojos representan las estaciones disponibles.

Ponga el ratón en el punto deseado para ver el nombre de la estación.

Haga clic para ver las observaciones y los pronósticos meteorológicos.

Para cambiar el mapa : haga clic en los botones verdes con una cruz de color negro para hacer un zoom, en el botón verde con un guión para alejar o en las flechas verdes para mapas adyacentes.


METAR-TAF: